sensor_id;sensor_type;location;lat;lon;timestamp;P1;durP1;ratioP1;P2;durP2;ratioP2
18748;SDS011;9503;53.560;10.246;2023-04-28T00:02:14;22.60;;;10.10;;
18748;SDS011;9503;53.560;10.246;2023-04-28T00:04:41;22.70;;;10.40;;
18748;SDS011;9503;53.560;10.246;2023-04-28T00:07:08;17.43;;;10.10;;
18748;SDS011;9503;53.560;10.246;2023-04-28T00:09:34;18.20;;;10.20;;
18748;SDS011;9503;53.560;10.246;2023-04-28T00:12:03;20.67;;;10.07;;
18748;SDS011;9503;53.560;10.246;2023-04-28T00:14:30;21.27;;;10.70;;
18748;SDS011;9503;53.560;10.246;2023-04-28T00:16:57;23.33;;;11.20;;
18748;SDS011;9503;53.560;10.246;2023-04-28T00:19:23;17.17;;;9.83;;
18748;SDS011;9503;53.560;10.246;2023-04-28T00:21:50;22.17;;;10.63;;
18748;SDS011;9503;53.560;10.246;2023-04-28T00:24:17;21.17;;;10.73;;
18748;SDS011;9503;53.560;10.246;2023-04-28T00:26:43;20.47;;;9.90;;
18748;SDS011;9503;53.560;10.246;2023-04-28T00:29:11;17.67;;;9.40;;
18748;SDS011;9503;53.560;10.246;2023-04-28T00:31:38;22.20;;;10.47;;
18748;SDS011;9503;53.560;10.246;2023-04-28T00:34:04;20.47;;;10.40;;
18748;SDS011;9503;53.560;10.246;2023-04-28T00:36:31;16.97;;;9.50;;
18748;SDS011;9503;53.560;10.246;2023-04-28T00:38:57;19.50;;;9.73;;
18748;SDS011;9503;53.560;10.246;2023-04-28T00:41:24;22.60;;;10.90;;
18748;SDS011;9503;53.560;10.246;2023-04-28T00:43:51;23.23;;;10.27;;
18748;SDS011;9503;53.560;10.246;2023-04-28T00:46:21;24.37;;;10.47;;
18748;SDS011;9503;53.560;10.246;2023-04-28T00:48:49;22.70;;;10.13;;
18748;SDS011;9503;53.560;10.246;2023-04-28T00:51:16;18.80;;;9.83;;
18748;SDS011;9503;53.560;10.246;2023-04-28T00:53:43;19.97;;;9.60;;
18748;SDS011;9503;53.560;10.246;2023-04-28T00:56:10;17.73;;;9.73;;
18748;SDS011;9503;53.560;10.246;2023-04-28T00:58:36;20.23;;;10.23;;
18748;SDS011;9503;53.560;10.246;2023-04-28T01:01:03;22.20;;;9.97;;
18748;SDS011;9503;53.560;10.246;2023-04-28T01:03:34;17.97;;;9.70;;
18748;SDS011;9503;53.560;10.246;2023-04-28T01:06:02;16.00;;;9.10;;
18748;SDS011;9503;53.560;10.246;2023-04-28T01:08:30;15.90;;;9.17;;
18748;SDS011;9503;53.560;10.246;2023-04-28T01:10:57;18.10;;;9.53;;
18748;SDS011;9503;53.560;10.246;2023-04-28T01:13:24;19.00;;;9.83;;
18748;SDS011;9503;53.560;10.246;2023-04-28T01:15:50;18.40;;;9.93;;
18748;SDS011;9503;53.560;10.246;2023-04-28T01:18:17;17.43;;;9.07;;
18748;SDS011;9503;53.560;10.246;2023-04-28T01:20:45;20.70;;;10.40;;
18748;SDS011;9503;53.560;10.246;2023-04-28T01:23:12;18.40;;;9.90;;
18748;SDS011;9503;53.560;10.246;2023-04-28T01:25:41;18.93;;;9.40;;
18748;SDS011;9503;53.560;10.246;2023-04-28T01:28:09;20.50;;;9.43;;
18748;SDS011;9503;53.560;10.246;2023-04-28T01:30:37;20.40;;;9.97;;
18748;SDS011;9503;53.560;10.246;2023-04-28T01:33:03;19.57;;;10.33;;
18748;SDS011;9503;53.560;10.246;2023-04-28T01:35:30;22.27;;;10.40;;
18748;SDS011;9503;53.560;10.246;2023-04-28T01:37:56;20.13;;;10.67;;
18748;SDS011;9503;53.560;10.246;2023-04-28T01:40:23;18.47;;;10.53;;
18748;SDS011;9503;53.560;10.246;2023-04-28T01:42:51;21.60;;;10.07;;
18748;SDS011;9503;53.560;10.246;2023-04-28T01:45:18;20.97;;;10.27;;
18748;SDS011;9503;53.560;10.246;2023-04-28T01:47:44;24.00;;;10.10;;
18748;SDS011;9503;53.560;10.246;2023-04-28T01:50:11;18.03;;;9.57;;
18748;SDS011;9503;53.560;10.246;2023-04-28T01:52:37;18.27;;;9.17;;
18748;SDS011;9503;53.560;10.246;2023-04-28T01:55:04;18.87;;;9.80;;
18748;SDS011;9503;53.560;10.246;2023-04-28T01:57:31;20.90;;;9.90;;
18748;SDS011;9503;53.560;10.246;2023-04-28T02:00:01;19.30;;;9.17;;
18748;SDS011;9503;53.560;10.246;2023-04-28T02:02:28;22.57;;;10.47;;
18748;SDS011;9503;53.560;10.246;2023-04-28T02:04:55;18.43;;;10.10;;
18748;SDS011;9503;53.560;10.246;2023-04-28T02:07:23;19.13;;;9.80;;
18748;SDS011;9503;53.560;10.246;2023-04-28T02:09:49;18.77;;;9.83;;
18748;SDS011;9503;53.560;10.246;2023-04-28T02:12:16;20.97;;;10.30;;
18748;SDS011;9503;53.560;10.246;2023-04-28T02:14:42;17.83;;;9.57;;
18748;SDS011;9503;53.560;10.246;2023-04-28T02:17:11;16.47;;;10.27;;
18748;SDS011;9503;53.560;10.246;2023-04-28T02:19:38;23.57;;;10.20;;
18748;SDS011;9503;53.560;10.246;2023-04-28T02:22:04;22.23;;;10.30;;
18748;SDS011;9503;53.560;10.246;2023-04-28T02:24:33;17.87;;;10.37;;
18748;SDS011;9503;53.560;10.246;2023-04-28T02:27:00;18.37;;;8.90;;
18748;SDS011;9503;53.560;10.246;2023-04-28T02:29:27;20.03;;;10.00;;
18748;SDS011;9503;53.560;10.246;2023-04-28T02:31:54;21.13;;;9.50;;
18748;SDS011;9503;53.560;10.246;2023-04-28T02:34:22;22.93;;;9.93;;
18748;SDS011;9503;53.560;10.246;2023-04-28T02:36:48;18.83;;;8.97;;
18748;SDS011;9503;53.560;10.246;2023-04-28T02:39:15;18.03;;;9.30;;
18748;SDS011;9503;53.560;10.246;2023-04-28T02:41:42;17.10;;;9.03;;
18748;SDS011;9503;53.560;10.246;2023-04-28T02:44:08;15.17;;;9.30;;
18748;SDS011;9503;53.560;10.246;2023-04-28T02:46:35;14.97;;;8.53;;
18748;SDS011;9503;53.560;10.246;2023-04-28T02:49:01;16.93;;;8.40;;
18748;SDS011;9503;53.560;10.246;2023-04-28T02:51:29;18.70;;;8.97;;
18748;SDS011;9503;53.560;10.246;2023-04-28T02:53:56;15.40;;;8.77;;
18748;SDS011;9503;53.560;10.246;2023-04-28T02:56:23;15.17;;;8.20;;
18748;SDS011;9503;53.560;10.246;2023-04-28T02:58:50;18.80;;;9.33;;
18748;SDS011;9503;53.560;10.246;2023-04-28T03:01:16;17.47;;;8.73;;
18748;SDS011;9503;53.560;10.246;2023-04-28T03:03:43;15.87;;;9.30;;
18748;SDS011;9503;53.560;10.246;2023-04-28T03:06:10;15.93;;;8.30;;
18748;SDS011;9503;53.560;10.246;2023-04-28T03:08:38;22.13;;;10.63;;
18748;SDS011;9503;53.560;10.246;2023-04-28T03:11:04;15.97;;;9.10;;
18748;SDS011;9503;53.560;10.246;2023-04-28T03:13:31;18.77;;;9.10;;
18748;SDS011;9503;53.560;10.246;2023-04-28T03:15:57;16.83;;;8.47;;
18748;SDS011;9503;53.560;10.246;2023-04-28T03:18:24;15.23;;;8.30;;
18748;SDS011;9503;53.560;10.246;2023-04-28T03:20:51;20.87;;;9.33;;
18748;SDS011;9503;53.560;10.246;2023-04-28T03:23:17;15.47;;;8.23;;
18748;SDS011;9503;53.560;10.246;2023-04-28T03:25:45;13.23;;;8.00;;
18748;SDS011;9503;53.560;10.246;2023-04-28T03:28:12;15.40;;;8.70;;
18748;SDS011;9503;53.560;10.246;2023-04-28T03:30:38;16.30;;;8.13;;
18748;SDS011;9503;53.560;10.246;2023-04-28T03:33:05;16.20;;;9.00;;
18748;SDS011;9503;53.560;10.246;2023-04-28T03:35:31;17.83;;;8.03;;
18748;SDS011;9503;53.560;10.246;2023-04-28T03:37:58;18.03;;;8.97;;
18748;SDS011;9503;53.560;10.246;2023-04-28T03:40:25;14.13;;;7.47;;
18748;SDS011;9503;53.560;10.246;2023-04-28T03:42:52;13.97;;;8.27;;
18748;SDS011;9503;53.560;10.246;2023-04-28T03:45:19;14.37;;;7.97;;
18748;SDS011;9503;53.560;10.246;2023-04-28T03:47:46;14.33;;;7.87;;
18748;SDS011;9503;53.560;10.246;2023-04-28T03:50:12;17.97;;;9.07;;
18748;SDS011;9503;53.560;10.246;2023-04-28T03:52:39;15.07;;;7.50;;
18748;SDS011;9503;53.560;10.246;2023-04-28T03:55:05;14.17;;;8.03;;
18748;SDS011;9503;53.560;10.246;2023-04-28T03:57:32;14.27;;;8.50;;
18748;SDS011;9503;53.560;10.246;2023-04-28T04:00:01;13.23;;;7.57;;
18748;SDS011;9503;53.560;10.246;2023-04-28T04:02:28;19.30;;;8.60;;
18748;SDS011;9503;53.560;10.246;2023-04-28T04:04:54;19.23;;;8.07;;
18748;SDS011;9503;53.560;10.246;2023-04-28T04:07:21;16.23;;;7.97;;
18748;SDS011;9503;53.560;10.246;2023-04-28T04:09:48;14.80;;;8.67;;
18748;SDS011;9503;53.560;10.246;2023-04-28T04:12:15;15.03;;;8.77;;
18748;SDS011;9503;53.560;10.246;2023-04-28T04:14:41;20.57;;;8.70;;
18748;SDS011;9503;53.560;10.246;2023-04-28T04:17:09;17.83;;;9.10;;
18748;SDS011;9503;53.560;10.246;2023-04-28T04:19:36;13.40;;;7.97;;
18748;SDS011;9503;53.560;10.246;2023-04-28T04:22:02;13.83;;;8.27;;
18748;SDS011;9503;53.560;10.246;2023-04-28T04:24:29;19.33;;;8.53;;
18748;SDS011;9503;53.560;10.246;2023-04-28T04:26:56;18.97;;;8.57;;
18748;SDS011;9503;53.560;10.246;2023-04-28T04:29:22;18.77;;;8.43;;
18748;SDS011;9503;53.560;10.246;2023-04-28T04:31:49;14.30;;;8.67;;
18748;SDS011;9503;53.560;10.246;2023-04-28T04:34:17;16.87;;;7.70;;
18748;SDS011;9503;53.560;10.246;2023-04-28T04:36:43;18.53;;;7.83;;
18748;SDS011;9503;53.560;10.246;2023-04-28T04:39:10;14.13;;;8.47;;
18748;SDS011;9503;53.560;10.246;2023-04-28T04:41:36;18.87;;;7.87;;
18748;SDS011;9503;53.560;10.246;2023-04-28T04:44:03;12.10;;;6.70;;
18748;SDS011;9503;53.560;10.246;2023-04-28T04:46:30;16.50;;;7.77;;
18748;SDS011;9503;53.560;10.246;2023-04-28T04:48:56;10.27;;;6.47;;
18748;SDS011;9503;53.560;10.246;2023-04-28T04:51:24;12.33;;;7.03;;
18748;SDS011;9503;53.560;10.246;2023-04-28T04:53:52;13.97;;;6.67;;
18748;SDS011;9503;53.560;10.246;2023-04-28T04:56:18;12.27;;;7.10;;
18748;SDS011;9503;53.560;10.246;2023-04-28T04:58:45;11.83;;;6.40;;
18748;SDS011;9503;53.560;10.246;2023-04-28T05:01:12;12.27;;;6.93;;
18748;SDS011;9503;53.560;10.246;2023-04-28T05:03:38;10.63;;;6.63;;
18748;SDS011;9503;53.560;10.246;2023-04-28T05:06:05;12.60;;;6.50;;
18748;SDS011;9503;53.560;10.246;2023-04-28T05:08:33;12.37;;;6.30;;
18748;SDS011;9503;53.560;10.246;2023-04-28T05:10:59;9.30;;;6.00;;
18748;SDS011;9503;53.560;10.246;2023-04-28T05:13:26;11.57;;;6.03;;
18748;SDS011;9503;53.560;10.246;2023-04-28T05:15:52;12.03;;;5.93;;
18748;SDS011;9503;53.560;10.246;2023-04-28T05:18:19;9.97;;;5.83;;
18748;SDS011;9503;53.560;10.246;2023-04-28T05:20:46;9.70;;;5.83;;
18748;SDS011;9503;53.560;10.246;2023-04-28T05:23:13;10.07;;;5.37;;
18748;SDS011;9503;53.560;10.246;2023-04-28T05:25:42;8.90;;;4.97;;
18748;SDS011;9503;53.560;10.246;2023-04-28T05:28:09;8.83;;;5.50;;
18748;SDS011;9503;53.560;10.246;2023-04-28T05:30:35;8.47;;;5.13;;
18748;SDS011;9503;53.560;10.246;2023-04-28T05:33:02;10.00;;;5.47;;
18748;SDS011;9503;53.560;10.246;2023-04-28T05:35:28;9.63;;;5.10;;
18748;SDS011;9503;53.560;10.246;2023-04-28T05:37:56;9.13;;;5.20;;
18748;SDS011;9503;53.560;10.246;2023-04-28T05:40:23;8.00;;;4.50;;
18748;SDS011;9503;53.560;10.246;2023-04-28T05:42:51;11.60;;;4.50;;
18748;SDS011;9503;53.560;10.246;2023-04-28T05:45:18;5.00;;;3.70;;
18748;SDS011;9503;53.560;10.246;2023-04-28T05:47:45;5.80;;;4.23;;
18748;SDS011;9503;53.560;10.246;2023-04-28T05:50:12;5.37;;;3.60;;
18748;SDS011;9503;53.560;10.246;2023-04-28T05:52:38;4.97;;;3.47;;
18748;SDS011;9503;53.560;10.246;2023-04-28T05:55:05;5.47;;;3.60;;
18748;SDS011;9503;53.560;10.246;2023-04-28T05:57:32;6.83;;;3.80;;
18748;SDS011;9503;53.560;10.246;2023-04-28T06:00:01;4.90;;;3.70;;
18748;SDS011;9503;53.560;10.246;2023-04-28T06:02:28;6.27;;;3.47;;
18748;SDS011;9503;53.560;10.246;2023-04-28T06:04:54;7.37;;;3.57;;
18748;SDS011;9503;53.560;10.246;2023-04-28T06:07:21;4.63;;;3.53;;
18748;SDS011;9503;53.560;10.246;2023-04-28T06:09:47;5.73;;;3.27;;
18748;SDS011;9503;53.560;10.246;2023-04-28T06:12:14;6.00;;;3.50;;
18748;SDS011;9503;53.560;10.246;2023-04-28T06:14:41;6.03;;;3.40;;
18748;SDS011;9503;53.560;10.246;2023-04-28T06:17:09;4.27;;;3.23;;
18748;SDS011;9503;53.560;10.246;2023-04-28T06:19:35;5.70;;;3.60;;
18748;SDS011;9503;53.560;10.246;2023-04-28T06:22:02;6.47;;;3.17;;
18748;SDS011;9503;53.560;10.246;2023-04-28T06:24:29;3.40;;;3.00;;
18748;SDS011;9503;53.560;10.246;2023-04-28T06:26:56;4.53;;;3.10;;
18748;SDS011;9503;53.560;10.246;2023-04-28T06:29:22;7.83;;;2.90;;
18748;SDS011;9503;53.560;10.246;2023-04-28T06:31:49;5.23;;;3.27;;
18748;SDS011;9503;53.560;10.246;2023-04-28T06:34:17;7.40;;;3.10;;
18748;SDS011;9503;53.560;10.246;2023-04-28T06:36:44;5.17;;;2.80;;
18748;SDS011;9503;53.560;10.246;2023-04-28T06:39:11;6.37;;;3.10;;
18748;SDS011;9503;53.560;10.246;2023-04-28T06:41:37;4.10;;;3.07;;
18748;SDS011;9503;53.560;10.246;2023-04-28T06:44:05;5.50;;;3.00;;
18748;SDS011;9503;53.560;10.246;2023-04-28T06:46:31;6.00;;;2.93;;
18748;SDS011;9503;53.560;10.246;2023-04-28T06:48:58;5.00;;;2.83;;
18748;SDS011;9503;53.560;10.246;2023-04-28T06:51:26;6.07;;;2.87;;
18748;SDS011;9503;53.560;10.246;2023-04-28T06:53:53;4.43;;;2.80;;
18748;SDS011;9503;53.560;10.246;2023-04-28T06:56:19;6.47;;;2.60;;
18748;SDS011;9503;53.560;10.246;2023-04-28T06:58:46;5.70;;;2.90;;
18748;SDS011;9503;53.560;10.246;2023-04-28T07:01:12;5.17;;;3.20;;
18748;SDS011;9503;53.560;10.246;2023-04-28T07:03:39;5.63;;;3.00;;
18748;SDS011;9503;53.560;10.246;2023-04-28T07:06:06;4.40;;;2.80;;
18748;SDS011;9503;53.560;10.246;2023-04-28T07:08:34;5.33;;;2.60;;
18748;SDS011;9503;53.560;10.246;2023-04-28T07:11:01;3.13;;;2.67;;
18748;SDS011;9503;53.560;10.246;2023-04-28T07:13:28;5.80;;;2.93;;
18748;SDS011;9503;53.560;10.246;2023-04-28T07:15:55;5.83;;;2.60;;
18748;SDS011;9503;53.560;10.246;2023-04-28T07:18:21;4.93;;;2.40;;
18748;SDS011;9503;53.560;10.246;2023-04-28T07:20:48;8.97;;;3.90;;
18748;SDS011;9503;53.560;10.246;2023-04-28T07:23:15;7.30;;;2.93;;
18748;SDS011;9503;53.560;10.246;2023-04-28T07:25:43;7.17;;;2.57;;
18748;SDS011;9503;53.560;10.246;2023-04-28T07:28:10;5.00;;;2.57;;
18748;SDS011;9503;53.560;10.246;2023-04-28T07:30:36;5.20;;;2.60;;
18748;SDS011;9503;53.560;10.246;2023-04-28T07:33:03;3.73;;;2.43;;
18748;SDS011;9503;53.560;10.246;2023-04-28T07:35:30;3.40;;;2.97;;
18748;SDS011;9503;53.560;10.246;2023-04-28T07:37:56;8.90;;;3.27;;
18748;SDS011;9503;53.560;10.246;2023-04-28T07:40:23;4.53;;;2.63;;
18748;SDS011;9503;53.560;10.246;2023-04-28T07:42:51;5.57;;;2.90;;
18748;SDS011;9503;53.560;10.246;2023-04-28T07:45:18;6.47;;;2.70;;
18748;SDS011;9503;53.560;10.246;2023-04-28T07:47:45;5.10;;;2.80;;
18748;SDS011;9503;53.560;10.246;2023-04-28T07:50:11;3.67;;;2.93;;
18748;SDS011;9503;53.560;10.246;2023-04-28T07:52:38;5.33;;;2.90;;
18748;SDS011;9503;53.560;10.246;2023-04-28T07:55:05;5.43;;;2.93;;
18748;SDS011;9503;53.560;10.246;2023-04-28T07:57:32;5.53;;;3.00;;
18748;SDS011;9503;53.560;10.246;2023-04-28T08:00:00;10.00;;;4.00;;
18748;SDS011;9503;53.560;10.246;2023-04-28T08:02:27;6.67;;;2.70;;
18748;SDS011;9503;53.560;10.246;2023-04-28T08:04:54;4.13;;;2.60;;
18748;SDS011;9503;53.560;10.246;2023-04-28T08:07:20;7.60;;;2.90;;
18748;SDS011;9503;53.560;10.246;2023-04-28T08:09:47;5.00;;;2.60;;
18748;SDS011;9503;53.560;10.246;2023-04-28T08:12:13;8.83;;;3.07;;
18748;SDS011;9503;53.560;10.246;2023-04-28T08:14:40;5.70;;;2.80;;
18748;SDS011;9503;53.560;10.246;2023-04-28T08:17:08;6.70;;;3.30;;
18748;SDS011;9503;53.560;10.246;2023-04-28T08:19:35;5.10;;;3.20;;
18748;SDS011;9503;53.560;10.246;2023-04-28T08:22:01;4.97;;;3.00;;
18748;SDS011;9503;53.560;10.246;2023-04-28T08:24:31;4.87;;;3.30;;
18748;SDS011;9503;53.560;10.246;2023-04-28T08:26:59;5.17;;;3.50;;
18748;SDS011;9503;53.560;10.246;2023-04-28T08:29:27;5.03;;;3.40;;
18748;SDS011;9503;53.560;10.246;2023-04-28T08:31:54;6.93;;;3.30;;
18748;SDS011;9503;53.560;10.246;2023-04-28T08:34:23;5.87;;;3.67;;
18748;SDS011;9503;53.560;10.246;2023-04-28T08:36:50;4.47;;;3.13;;
18748;SDS011;9503;53.560;10.246;2023-04-28T08:39:17;7.30;;;3.70;;
18748;SDS011;9503;53.560;10.246;2023-04-28T08:41:44;7.50;;;3.33;;
18748;SDS011;9503;53.560;10.246;2023-04-28T08:44:11;5.97;;;3.40;;
18748;SDS011;9503;53.560;10.246;2023-04-28T08:46:38;6.70;;;3.50;;
18748;SDS011;9503;53.560;10.246;2023-04-28T08:49:06;3.87;;;3.17;;
18748;SDS011;9503;53.560;10.246;2023-04-28T08:51:43;5.00;;;3.30;;
18748;SDS011;9503;53.560;10.246;2023-04-28T08:54:12;6.07;;;3.40;;
18748;SDS011;9503;53.560;10.246;2023-04-28T08:56:40;4.87;;;3.00;;
18748;SDS011;9503;53.560;10.246;2023-04-28T08:59:09;3.73;;;3.10;;
18748;SDS011;9503;53.560;10.246;2023-04-28T09:01:36;7.53;;;3.70;;
18748;SDS011;9503;53.560;10.246;2023-04-28T09:04:04;8.47;;;3.97;;
18748;SDS011;9503;53.560;10.246;2023-04-28T09:06:31;6.27;;;3.07;;
18748;SDS011;9503;53.560;10.246;2023-04-28T09:11:51;6.30;;;3.47;;
18748;SDS011;9503;53.560;10.246;2023-04-28T09:14:22;6.83;;;3.70;;
18748;SDS011;9503;53.560;10.246;2023-04-28T09:16:49;3.87;;;3.13;;
18748;SDS011;9503;53.560;10.246;2023-04-28T09:19:16;9.03;;;3.67;;
18748;SDS011;9503;53.560;10.246;2023-04-28T09:21:45;7.07;;;3.63;;
18748;SDS011;9503;53.560;10.246;2023-04-28T09:24:26;5.57;;;3.73;;
18748;SDS011;9503;53.560;10.246;2023-04-28T09:26:54;8.17;;;3.87;;
18748;SDS011;9503;53.560;10.246;2023-04-28T09:29:20;5.97;;;3.70;;
18748;SDS011;9503;53.560;10.246;2023-04-28T09:31:47;5.03;;;3.40;;
18748;SDS011;9503;53.560;10.246;2023-04-28T09:34:14;7.57;;;4.15;;
18748;SDS011;9503;53.560;10.246;2023-04-28T09:36:41;6.13;;;3.42;;
18748;SDS011;9503;53.560;10.246;2023-04-28T09:39:08;7.05;;;3.97;;
18748;SDS011;9503;53.560;10.246;2023-04-28T09:41:37;7.32;;;3.92;;
18748;SDS011;9503;53.560;10.246;2023-04-28T09:44:08;9.07;;;3.58;;
18748;SDS011;9503;53.560;10.246;2023-04-28T09:46:36;5.90;;;4.05;;
18748;SDS011;9503;53.560;10.246;2023-04-28T09:49:02;7.28;;;3.67;;
18748;SDS011;9503;53.560;10.246;2023-04-28T09:51:29;5.13;;;3.40;;
18748;SDS011;9503;53.560;10.246;2023-04-28T09:53:56;7.40;;;4.20;;
18748;SDS011;9503;53.560;10.246;2023-04-28T09:56:26;6.55;;;3.80;;
18748;SDS011;9503;53.560;10.246;2023-04-28T09:58:55;6.40;;;3.28;;
18748;SDS011;9503;53.560;10.246;2023-04-28T10:01:23;9.32;;;4.60;;
18748;SDS011;9503;53.560;10.246;2023-04-28T10:03:50;6.15;;;3.67;;
18748;SDS011;9503;53.560;10.246;2023-04-28T10:06:18;6.85;;;3.83;;
18748;SDS011;9503;53.560;10.246;2023-04-28T10:08:45;8.23;;;4.68;;
18748;SDS011;9503;53.560;10.246;2023-04-28T10:11:13;8.52;;;4.13;;
18748;SDS011;9503;53.560;10.246;2023-04-28T10:13:41;4.72;;;3.58;;
18748;SDS011;9503;53.560;10.246;2023-04-28T10:16:10;8.23;;;3.70;;
18748;SDS011;9503;53.560;10.246;2023-04-28T10:18:38;5.55;;;3.30;;
18748;SDS011;9503;53.560;10.246;2023-04-28T10:21:05;9.68;;;3.83;;
18748;SDS011;9503;53.560;10.246;2023-04-28T10:23:41;4.43;;;3.55;;
18748;SDS011;9503;53.560;10.246;2023-04-28T10:26:16;7.25;;;4.03;;
18748;SDS011;9503;53.560;10.246;2023-04-28T10:28:45;7.45;;;3.78;;
18748;SDS011;9503;53.560;10.246;2023-04-28T10:31:14;4.93;;;4.00;;
18748;SDS011;9503;53.560;10.246;2023-04-28T10:33:41;6.25;;;3.92;;
18748;SDS011;9503;53.560;10.246;2023-04-28T10:36:08;7.65;;;4.10;;
18748;SDS011;9503;53.560;10.246;2023-04-28T10:41:35;8.50;;;4.05;;
18748;SDS011;9503;53.560;10.246;2023-04-28T10:44:15;6.10;;;4.10;;
18748;SDS011;9503;53.560;10.246;2023-04-28T10:47:09;6.60;;;4.18;;
18748;SDS011;9503;53.560;10.246;2023-04-28T10:52:49;8.60;;;5.45;;
18748;SDS011;9503;53.560;10.246;2023-04-28T11:00:55;8.27;;;3.65;;
18748;SDS011;9503;53.560;10.246;2023-04-28T11:03:55;7.28;;;3.90;;
18748;SDS011;9503;53.560;10.246;2023-04-28T11:06:28;9.23;;;3.75;;
18748;SDS011;9503;53.560;10.246;2023-04-28T11:08:57;9.38;;;3.97;;
18748;SDS011;9503;53.560;10.246;2023-04-28T11:11:26;9.10;;;4.85;;
18748;SDS011;9503;53.560;10.246;2023-04-28T11:13:53;7.07;;;4.28;;
18748;SDS011;9503;53.560;10.246;2023-04-28T11:16:22;5.85;;;4.03;;
18748;SDS011;9503;53.560;10.246;2023-04-28T11:18:51;8.00;;;4.60;;
18748;SDS011;9503;53.560;10.246;2023-04-28T11:21:29;7.57;;;4.60;;
18748;SDS011;9503;53.560;10.246;2023-04-28T11:23:57;8.75;;;4.03;;
18748;SDS011;9503;53.560;10.246;2023-04-28T11:26:24;12.63;;;4.43;;
18748;SDS011;9503;53.560;10.246;2023-04-28T11:28:52;10.23;;;4.93;;
18748;SDS011;9503;53.560;10.246;2023-04-28T11:31:21;10.38;;;4.63;;
18748;SDS011;9503;53.560;10.246;2023-04-28T11:33:50;10.00;;;4.30;;
18748;SDS011;9503;53.560;10.246;2023-04-28T11:36:28;7.90;;;4.50;;
18748;SDS011;9503;53.560;10.246;2023-04-28T11:38:57;7.28;;;4.25;;
18748;SDS011;9503;53.560;10.246;2023-04-28T11:41:23;7.68;;;4.20;;
18748;SDS011;9503;53.560;10.246;2023-04-28T11:43:51;10.05;;;4.50;;
18748;SDS011;9503;53.560;10.246;2023-04-28T11:46:19;6.35;;;4.20;;
18748;SDS011;9503;53.560;10.246;2023-04-28T11:48:47;9.65;;;4.50;;
18748;SDS011;9503;53.560;10.246;2023-04-28T11:51:35;9.48;;;4.60;;
18748;SDS011;9503;53.560;10.246;2023-04-28T11:54:03;9.02;;;4.82;;
18748;SDS011;9503;53.560;10.246;2023-04-28T11:56:35;8.75;;;4.70;;
18748;SDS011;9503;53.560;10.246;2023-04-28T11:59:04;9.18;;;5.63;;
18748;SDS011;9503;53.560;10.246;2023-04-28T12:01:33;9.18;;;4.60;;
18748;SDS011;9503;53.560;10.246;2023-04-28T12:04:02;8.20;;;4.60;;
18748;SDS011;9503;53.560;10.246;2023-04-28T12:06:29;9.75;;;4.90;;
18748;SDS011;9503;53.560;10.246;2023-04-28T12:08:57;6.78;;;4.55;;
18748;SDS011;9503;53.560;10.246;2023-04-28T12:11:28;7.75;;;4.93;;
18748;SDS011;9503;53.560;10.246;2023-04-28T12:14:01;8.18;;;4.40;;
18748;SDS011;9503;53.560;10.246;2023-04-28T12:16:38;8.05;;;4.90;;
18748;SDS011;9503;53.560;10.246;2023-04-28T12:19:08;11.55;;;4.30;;
18748;SDS011;9503;53.560;10.246;2023-04-28T12:21:35;7.63;;;4.60;;
18748;SDS011;9503;53.560;10.246;2023-04-28T12:24:13;8.98;;;4.90;;
18748;SDS011;9503;53.560;10.246;2023-04-28T12:26:43;8.65;;;4.80;;
18748;SDS011;9503;53.560;10.246;2023-04-28T12:32:02;6.65;;;4.50;;
18748;SDS011;9503;53.560;10.246;2023-04-28T12:34:29;6.85;;;4.78;;
18748;SDS011;9503;53.560;10.246;2023-04-28T12:36:57;7.50;;;5.43;;
18748;SDS011;9503;53.560;10.246;2023-04-28T12:39:25;9.35;;;5.40;;
18748;SDS011;9503;53.560;10.246;2023-04-28T12:41:52;7.25;;;5.00;;
18748;SDS011;9503;53.560;10.246;2023-04-28T12:44:19;10.60;;;5.50;;
18748;SDS011;9503;53.560;10.246;2023-04-28T12:46:46;8.18;;;5.38;;
18748;SDS011;9503;53.560;10.246;2023-04-28T12:49:13;8.20;;;5.10;;
18748;SDS011;9503;53.560;10.246;2023-04-28T12:51:40;11.57;;;5.13;;
18748;SDS011;9503;53.560;10.246;2023-04-28T12:54:06;7.60;;;5.00;;
18748;SDS011;9503;53.560;10.246;2023-04-28T12:56:34;6.82;;;5.00;;
18748;SDS011;9503;53.560;10.246;2023-04-28T12:59:01;8.07;;;5.65;;
18748;SDS011;9503;53.560;10.246;2023-04-28T13:01:28;9.68;;;5.15;;
18748;SDS011;9503;53.560;10.246;2023-04-28T13:03:55;7.70;;;5.10;;
18748;SDS011;9503;53.560;10.246;2023-04-28T13:06:21;8.38;;;5.40;;
18748;SDS011;9503;53.560;10.246;2023-04-28T13:08:48;10.80;;;5.30;;
18748;SDS011;9503;53.560;10.246;2023-04-28T13:11:14;8.80;;;5.40;;
18748;SDS011;9503;53.560;10.246;2023-04-28T13:13:42;10.13;;;5.05;;
18748;SDS011;9503;53.560;10.246;2023-04-28T13:16:09;8.68;;;4.85;;
18748;SDS011;9503;53.560;10.246;2023-04-28T13:18:36;7.80;;;4.95;;
18748;SDS011;9503;53.560;10.246;2023-04-28T13:21:02;9.13;;;5.15;;
18748;SDS011;9503;53.560;10.246;2023-04-28T13:23:30;11.73;;;5.38;;
18748;SDS011;9503;53.560;10.246;2023-04-28T13:25:56;15.75;;;5.05;;
18748;SDS011;9503;53.560;10.246;2023-04-28T13:28:23;9.38;;;5.20;;
18748;SDS011;9503;53.560;10.246;2023-04-28T13:30:51;13.05;;;5.78;;
18748;SDS011;9503;53.560;10.246;2023-04-28T13:33:20;10.27;;;5.13;;
18748;SDS011;9503;53.560;10.246;2023-04-28T13:35:47;8.90;;;5.80;;
18748;SDS011;9503;53.560;10.246;2023-04-28T13:38:13;8.10;;;5.47;;
18748;SDS011;9503;53.560;10.246;2023-04-28T13:40:40;8.15;;;5.65;;
18748;SDS011;9503;53.560;10.246;2023-04-28T13:43:07;9.70;;;5.57;;
18748;SDS011;9503;53.560;10.246;2023-04-28T13:45:34;10.52;;;5.57;;
18748;SDS011;9503;53.560;10.246;2023-04-28T13:48:02;9.60;;;5.55;;
18748;SDS011;9503;53.560;10.246;2023-04-28T13:50:29;8.40;;;5.22;;
18748;SDS011;9503;53.560;10.246;2023-04-28T13:52:55;9.70;;;6.18;;
18748;SDS011;9503;53.560;10.246;2023-04-28T13:55:22;9.38;;;5.40;;
18748;SDS011;9503;53.560;10.246;2023-04-28T13:57:52;8.88;;;5.95;;
18748;SDS011;9503;53.560;10.246;2023-04-28T14:00:19;7.47;;;4.90;;
18748;SDS011;9503;53.560;10.246;2023-04-28T14:02:46;10.50;;;5.22;;
18748;SDS011;9503;53.560;10.246;2023-04-28T14:05:15;6.90;;;4.97;;
18748;SDS011;9503;53.560;10.246;2023-04-28T14:07:42;14.55;;;5.55;;
18748;SDS011;9503;53.560;10.246;2023-04-28T14:10:10;12.68;;;5.78;;
18748;SDS011;9503;53.560;10.246;2023-04-28T14:12:36;8.40;;;5.18;;
18748;SDS011;9503;53.560;10.246;2023-04-28T14:15:03;9.35;;;5.38;;
18748;SDS011;9503;53.560;10.246;2023-04-28T14:17:31;9.80;;;5.13;;
18748;SDS011;9503;53.560;10.246;2023-04-28T14:19:58;7.88;;;5.50;;
18748;SDS011;9503;53.560;10.246;2023-04-28T14:22:26;6.82;;;4.75;;
18748;SDS011;9503;53.560;10.246;2023-04-28T14:24:53;10.55;;;5.65;;
18748;SDS011;9503;53.560;10.246;2023-04-28T14:27:20;7.47;;;5.03;;
18748;SDS011;9503;53.560;10.246;2023-04-28T14:29:47;8.02;;;5.78;;
18748;SDS011;9503;53.560;10.246;2023-04-28T14:32:14;10.15;;;6.05;;
18748;SDS011;9503;53.560;10.246;2023-04-28T14:34:44;10.60;;;6.30;;
18748;SDS011;9503;53.560;10.246;2023-04-28T14:37:12;10.57;;;6.07;;
18748;SDS011;9503;53.560;10.246;2023-04-28T14:39:40;10.75;;;5.90;;
18748;SDS011;9503;53.560;10.246;2023-04-28T14:42:07;8.90;;;6.55;;
18748;SDS011;9503;53.560;10.246;2023-04-28T14:44:34;9.80;;;5.80;;
18748;SDS011;9503;53.560;10.246;2023-04-28T14:47:01;10.02;;;5.80;;
18748;SDS011;9503;53.560;10.246;2023-04-28T14:49:27;13.30;;;7.05;;
18748;SDS011;9503;53.560;10.246;2023-04-28T14:51:54;11.27;;;6.35;;
18748;SDS011;9503;53.560;10.246;2023-04-28T14:54:21;14.68;;;6.35;;
18748;SDS011;9503;53.560;10.246;2023-04-28T14:56:49;8.07;;;6.18;;
18748;SDS011;9503;53.560;10.246;2023-04-28T14:59:16;10.63;;;5.90;;
18748;SDS011;9503;53.560;10.246;2023-04-28T15:01:43;10.93;;;5.97;;